createdAt,value
2023-02-06T00:01:19.502Z,16.30
2023-02-06T00:03:47.145Z,17.70
2023-02-06T00:06:15.987Z,15.63
2023-02-06T00:08:43.519Z,16.20
2023-02-06T00:11:13.278Z,15.20
2023-02-06T00:13:40.963Z,16.00
2023-02-06T00:16:15.978Z,15.33
2023-02-06T00:18:43.753Z,16.80
2023-02-06T00:21:11.240Z,16.57
2023-02-06T00:23:40.632Z,18.27
2023-02-06T00:26:08.606Z,20.10
2023-02-06T00:28:37.723Z,20.33
2023-02-06T00:31:05.921Z,20.20
2023-02-06T00:33:33.737Z,19.60
2023-02-06T00:36:02.261Z,19.43
2023-02-06T00:38:29.813Z,17.63
2023-02-06T00:41:00.272Z,18.27
2023-02-06T00:43:27.779Z,16.37
2023-02-06T00:45:57.895Z,16.00
2023-02-06T00:48:25.820Z,15.30
2023-02-06T00:50:53.829Z,14.37
2023-02-06T00:53:21.543Z,12.67
2023-02-06T00:55:49.113Z,13.13
2023-02-06T00:58:18.007Z,11.87
2023-02-06T01:00:45.876Z,11.27
2023-02-06T01:03:13.559Z,12.17
2023-02-06T01:05:41.898Z,11.07
2023-02-06T01:08:09.481Z,10.43
2023-02-06T01:10:37.068Z,9.63
2023-02-06T01:13:04.601Z,9.40
2023-02-06T01:15:33.668Z,10.27
2023-02-06T01:18:02.003Z,10.67
2023-02-06T01:20:29.873Z,10.30
2023-02-06T01:22:57.393Z,11.27
2023-02-06T01:25:25.025Z,10.53
2023-02-06T01:27:52.605Z,10.87
2023-02-06T01:30:20.216Z,10.00
2023-02-06T01:32:49.167Z,10.27
2023-02-06T01:35:17.048Z,10.00
2023-02-06T01:37:45.053Z,9.57
2023-02-06T01:40:14.564Z,10.43
2023-02-06T01:42:42.725Z,11.20
2023-02-06T01:45:29.008Z,11.57
2023-02-06T01:47:59.295Z,11.57
2023-02-06T01:50:27.037Z,11.83
2023-02-06T01:52:54.658Z,11.90
2023-02-06T01:55:22.248Z,11.07
2023-02-06T01:57:50.818Z,10.43
2023-02-06T02:00:18.954Z,10.33
2023-02-06T02:02:49.006Z,10.70
2023-02-06T02:05:18.726Z,9.60
2023-02-06T02:07:47.912Z,10.67
2023-02-06T02:10:15.736Z,10.63
2023-02-06T02:12:43.564Z,10.43
2023-02-06T02:15:11.178Z,10.67
2023-02-06T02:17:47.724Z,11.03
2023-02-06T02:20:29.048Z,10.47
2023-02-06T02:23:00.787Z,10.50
2023-02-06T02:25:47.633Z,10.40
2023-02-06T02:28:27.826Z,10.80
2023-02-06T02:31:08.341Z,11.20
2023-02-06T02:34:03.271Z,11.00
2023-02-06T02:36:35.389Z,11.10
2023-02-06T02:39:08.037Z,12.03
2023-02-06T02:41:57.376Z,11.87
2023-02-06T02:44:29.769Z,10.70
2023-02-06T02:46:58.785Z,11.97
2023-02-06T02:49:28.396Z,10.70
2023-02-06T02:51:58.237Z,11.63
2023-02-06T02:54:26.339Z,11.40
2023-02-06T02:56:54.174Z,11.57
2023-02-06T02:59:25.169Z,11.37
2023-02-06T03:01:56.988Z,10.30
2023-02-06T03:04:26.871Z,10.47
2023-02-06T03:07:09.018Z,10.90
2023-02-06T03:09:45.944Z,11.13
2023-02-06T03:12:19.010Z,10.90
2023-02-06T03:14:48.434Z,10.60
2023-02-06T03:17:18.948Z,10.47
2023-02-06T03:19:48.398Z,10.70
2023-02-06T03:22:18.093Z,10.10
2023-02-06T03:24:46.070Z,10.23
2023-02-06T03:27:15.685Z,10.40
2023-02-06T03:29:44.189Z,10.00
2023-02-06T03:32:13.541Z,9.70
2023-02-06T03:34:45.119Z,9.13
2023-02-06T03:37:13.035Z,9.80
2023-02-06T03:39:42.032Z,9.53
2023-02-06T03:42:11.748Z,9.27
2023-02-06T03:44:40.704Z,9.47
2023-02-06T03:47:09.120Z,8.87
2023-02-06T03:49:39.143Z,8.97
2023-02-06T03:52:08.492Z,8.00
2023-02-06T03:54:37.656Z,8.23
2023-02-06T03:57:07.621Z,7.57
2023-02-06T03:59:35.217Z,7.03
2023-02-06T04:02:03.602Z,6.80
2023-02-06T04:04:32.315Z,7.37
2023-02-06T04:07:01.321Z,8.67
2023-02-06T04:09:28.860Z,6.27
2023-02-06T04:11:56.357Z,6.47
2023-02-06T04:14:25.444Z,6.13
2023-02-06T04:16:52.953Z,5.37
2023-02-06T04:19:20.488Z,5.43
2023-02-06T04:21:47.966Z,6.40
2023-02-06T04:24:15.498Z,4.73
2023-02-06T04:26:43.049Z,5.23
2023-02-06T04:29:12.649Z,5.47
2023-02-06T04:31:41.662Z,5.13
2023-02-06T04:34:09.192Z,4.90
2023-02-06T04:36:36.849Z,5.50
2023-02-06T04:39:06.676Z,5.23
2023-02-06T04:41:34.614Z,4.93
2023-02-06T04:44:02.193Z,4.60
2023-02-06T04:46:29.740Z,4.33
2023-02-06T04:48:58.584Z,4.93
2023-02-06T04:51:26.079Z,5.47
2023-02-06T04:53:53.897Z,4.83
2023-02-06T04:56:21.484Z,4.23
2023-02-06T04:58:49.098Z,5.30
2023-02-06T05:01:17.146Z,5.87
2023-02-06T05:03:44.688Z,5.33
2023-02-06T05:06:13.700Z,5.27
2023-02-06T05:08:41.239Z,4.20
2023-02-06T05:11:08.962Z,5.83
2023-02-06T05:13:36.588Z,5.03
2023-02-06T05:16:05.988Z,4.40
2023-02-06T05:18:33.515Z,5.77
2023-02-06T05:21:01.132Z,4.53
2023-02-06T05:23:30.259Z,5.07
2023-02-06T05:25:57.809Z,5.20
2023-02-06T05:28:25.456Z,5.70
2023-02-06T05:30:53.400Z,6.80
2023-02-06T05:33:21.008Z,5.90
2023-02-06T05:35:48.512Z,4.90
2023-02-06T05:38:16.084Z,5.63
2023-02-06T05:40:44.991Z,5.30
2023-02-06T05:43:12.942Z,5.07
2023-02-06T05:45:40.806Z,5.20
2023-02-06T05:48:08.530Z,5.67
2023-02-06T05:50:36.066Z,6.00
2023-02-06T05:53:05.449Z,5.27
2023-02-06T05:55:32.998Z,5.80
2023-02-06T05:58:01.834Z,5.77
2023-02-06T06:00:29.436Z,5.57
2023-02-06T06:02:57.174Z,5.97
2023-02-06T06:05:25.615Z,6.37
2023-02-06T06:07:53.131Z,6.03
2023-02-06T06:10:20.926Z,6.93
2023-02-06T06:12:48.519Z,7.13
2023-02-06T06:15:17.546Z,6.50
2023-02-06T06:17:45.020Z,6.00
2023-02-06T06:20:12.866Z,6.93
2023-02-06T06:22:40.411Z,6.00
2023-02-06T06:25:08.078Z,7.13
2023-02-06T06:27:35.596Z,5.80
2023-02-06T06:30:03.124Z,5.73
2023-02-06T06:32:32.087Z,5.90
2023-02-06T06:34:59.652Z,6.70
2023-02-06T06:37:27.265Z,6.63
2023-02-06T06:39:54.775Z,6.97
2023-02-06T06:42:22.324Z,6.13
2023-02-06T06:44:49.906Z,7.37
2023-02-06T06:47:17.468Z,7.10
2023-02-06T06:49:46.324Z,7.27
2023-02-06T06:52:24.390Z,7.67
2023-02-06T06:54:53.072Z,7.30
2023-02-06T06:57:20.615Z,7.17
2023-02-06T06:59:48.145Z,7.97
2023-02-06T07:02:15.800Z,8.80
2023-02-06T07:04:43.415Z,7.97
2023-02-06T07:07:12.375Z,8.63
2023-02-06T07:09:39.909Z,8.57
2023-02-06T07:12:07.728Z,8.40
2023-02-06T07:14:35.185Z,8.07
2023-02-06T07:17:02.692Z,7.17
2023-02-06T07:19:30.282Z,7.70
2023-02-06T07:21:57.769Z,6.97
2023-02-06T07:24:26.651Z,6.93
2023-02-06T07:26:54.145Z,6.63
2023-02-06T07:29:21.719Z,8.00
2023-02-06T07:31:49.389Z,8.00
2023-02-06T07:34:17.654Z,8.57
2023-02-06T07:36:45.187Z,7.60
2023-02-06T07:39:12.766Z,6.80
2023-02-06T07:41:42.747Z,7.53
2023-02-06T07:44:13.305Z,6.53
2023-02-06T07:46:42.182Z,6.90
2023-02-06T07:49:09.912Z,7.83
2023-02-06T07:51:37.436Z,6.60
2023-02-06T07:54:05.163Z,6.47
2023-02-06T07:56:32.619Z,7.33
2023-02-06T07:59:01.695Z,5.97
2023-02-06T08:01:29.544Z,6.10
2023-02-06T08:03:57.144Z,6.53
2023-02-06T08:06:25.503Z,6.83
2023-02-06T08:08:54.969Z,7.13
2023-02-06T08:11:25.040Z,6.07
2023-02-06T08:13:52.713Z,6.33
2023-02-06T08:16:22.762Z,6.37
2023-02-06T08:18:50.278Z,7.33
2023-02-06T08:21:18.557Z,7.00
2023-02-06T08:23:46.299Z,7.20
2023-02-06T08:26:15.692Z,8.63
2023-02-06T08:28:43.629Z,7.63
2023-02-06T08:31:12.050Z,10.30
2023-02-06T08:33:41.220Z,9.97
2023-02-06T08:36:09.848Z,8.03
2023-02-06T08:38:37.612Z,6.97
2023-02-06T08:41:05.395Z,7.90
2023-02-06T08:43:33.240Z,7.00
2023-02-06T08:46:01.105Z,7.57
2023-02-06T08:48:28.697Z,8.10
2023-02-06T08:51:04.106Z,9.80
2023-02-06T08:53:31.814Z,10.50
2023-02-06T08:55:59.900Z,8.93
2023-02-06T08:58:27.746Z,9.10
2023-02-06T09:00:55.278Z,9.10
2023-02-06T09:03:23.081Z,8.93
2023-02-06T09:05:51.601Z,9.17
2023-02-06T09:08:21.614Z,9.70
2023-02-06T09:10:49.127Z,9.93
2023-02-06T09:13:16.720Z,11.40
2023-02-06T09:15:51.060Z,14.83
2023-02-06T09:18:18.644Z,9.87
2023-02-06T09:20:49.653Z,13.53
2023-02-06T09:23:18.370Z,9.77
2023-02-06T09:25:47.293Z,9.70
2023-02-06T09:28:14.996Z,8.40
2023-02-06T09:30:42.701Z,10.33
2023-02-06T09:33:10.296Z,10.87
2023-02-06T09:35:38.170Z,17.37
2023-02-06T09:38:05.923Z,10.43
2023-02-06T09:40:34.254Z,27.10
2023-02-06T09:43:03.925Z,10.57
2023-02-06T09:45:32.675Z,13.85
2023-02-06T09:48:01.609Z,16.30
2023-02-06T09:50:34.119Z,12.13
2023-02-06T09:53:13.883Z,11.15
2023-02-06T09:55:42.782Z,8.00
2023-02-06T09:58:19.109Z,8.52
2023-02-06T10:00:49.744Z,8.88
2023-02-06T10:03:41.235Z,9.00
2023-02-06T10:06:13.435Z,8.88
2023-02-06T10:08:43.042Z,8.17
2023-02-06T10:11:12.346Z,11.47
2023-02-06T10:13:43.574Z,8.60
2023-02-06T10:16:28.278Z,8.73
2023-02-06T10:18:57.789Z,9.02
2023-02-06T10:21:29.008Z,10.57
2023-02-06T10:23:58.837Z,9.90
2023-02-06T10:26:26.496Z,9.63
2023-02-06T10:28:58.971Z,10.20
2023-02-06T10:31:33.354Z,8.70
2023-02-06T10:34:14.390Z,8.70
2023-02-06T10:36:48.091Z,9.35
2023-02-06T10:39:31.558Z,9.68
2023-02-06T10:42:03.556Z,10.18
2023-02-06T10:44:36.717Z,9.47
2023-02-06T10:47:05.859Z,10.27
2023-02-06T10:49:35.593Z,9.75
2023-02-06T10:52:03.910Z,10.47
2023-02-06T10:54:34.509Z,9.90
2023-02-06T10:57:02.983Z,10.32
2023-02-06T10:59:33.357Z,10.85
2023-02-06T11:02:17.105Z,10.70
2023-02-06T11:04:47.273Z,10.77
2023-02-06T11:07:17.088Z,11.00
2023-02-06T11:09:44.758Z,10.48
2023-02-06T11:12:20.615Z,11.02
2023-02-06T11:14:50.232Z,10.57
2023-02-06T11:17:19.530Z,10.43
2023-02-06T11:19:49.213Z,11.48
2023-02-06T11:22:18.192Z,9.77
2023-02-06T11:24:59.715Z,10.50
2023-02-06T11:27:28.312Z,11.03
2023-02-06T11:29:59.276Z,10.63
2023-02-06T11:32:30.354Z,11.23
2023-02-06T11:34:58.812Z,10.82
2023-02-06T11:37:32.442Z,11.10
2023-02-06T11:40:21.805Z,11.80
2023-02-06T11:42:52.563Z,11.05
2023-02-06T11:45:28.866Z,11.10
2023-02-06T11:47:56.634Z,12.40
2023-02-06T11:50:26.046Z,10.97
2023-02-06T11:52:59.440Z,10.40
2023-02-06T11:55:28.270Z,10.27
2023-02-06T11:58:03.193Z,8.80
2023-02-06T12:00:32.547Z,9.93
2023-02-06T12:03:00.592Z,8.80
2023-02-06T12:05:29.660Z,9.48
2023-02-06T12:08:00.038Z,9.75
2023-02-06T12:10:28.783Z,9.48
2023-02-06T12:12:58.981Z,9.75
2023-02-06T12:15:45.513Z,8.13
2023-02-06T12:18:17.980Z,8.45
2023-02-06T12:20:49.149Z,8.18
2023-02-06T12:23:19.352Z,9.60
2023-02-06T12:25:49.683Z,10.15
2023-02-06T12:28:19.652Z,10.13
2023-02-06T12:30:51.185Z,8.85
2023-02-06T12:33:22.754Z,9.52
2023-02-06T12:35:53.111Z,9.30
2023-02-06T12:38:23.903Z,9.75
2023-02-06T12:40:57.286Z,10.10
2023-02-06T12:43:24.924Z,11.10
2023-02-06T12:45:55.775Z,9.48
2023-02-06T12:48:29.457Z,10.32
2023-02-06T12:51:03.402Z,10.38
2023-02-06T12:53:35.337Z,10.05
2023-02-06T12:56:06.026Z,10.73
2023-02-06T12:58:40.512Z,10.52
2023-02-06T13:01:29.949Z,9.68
2023-02-06T13:04:02.586Z,11.05
2023-02-06T13:06:33.380Z,10.32
2023-02-06T13:09:02.301Z,10.60
2023-02-06T13:11:32.588Z,9.57
2023-02-06T13:14:02.010Z,13.13
2023-02-06T13:16:53.680Z,9.45
2023-02-06T13:19:24.792Z,9.18
2023-02-06T13:21:53.077Z,9.65
2023-02-06T13:24:21.584Z,9.38
2023-02-06T13:27:03.596Z,9.30
2023-02-06T13:29:33.249Z,8.75
2023-02-06T13:32:34.102Z,10.07
2023-02-06T13:35:07.648Z,8.30
2023-02-06T13:37:37.274Z,9.40
2023-02-06T13:40:30.398Z,9.67
2023-02-06T13:42:59.990Z,11.17
2023-02-06T13:45:29.505Z,9.85
2023-02-06T13:48:15.812Z,9.63
2023-02-06T13:50:50.706Z,10.50
2023-02-06T13:53:40.988Z,9.43
2023-02-06T13:56:11.053Z,8.88
2023-02-06T13:58:41.489Z,7.72
2023-02-06T14:01:14.506Z,8.10
2023-02-06T14:03:46.349Z,7.70
2023-02-06T14:06:31.812Z,8.43
2023-02-06T14:09:04.674Z,7.18
2023-02-06T14:11:36.543Z,7.15
2023-02-06T14:14:27.261Z,6.93
2023-02-06T14:16:59.598Z,6.78
2023-02-06T14:19:32.138Z,6.75
2023-02-06T14:22:03.996Z,6.80
2023-02-06T14:24:42.152Z,6.93
2023-02-06T14:27:26.960Z,6.72
2023-02-06T14:29:58.581Z,7.63
2023-02-06T14:32:33.007Z,6.57
2023-02-06T14:35:07.566Z,6.93
2023-02-06T14:37:42.720Z,8.10
2023-02-06T14:40:17.697Z,6.68
2023-02-06T14:42:46.163Z,6.93
2023-02-06T14:45:20.920Z,6.30
2023-02-06T14:47:48.783Z,6.57
2023-02-06T14:50:18.976Z,6.82
2023-02-06T14:52:47.409Z,7.00
2023-02-06T14:58:19.868Z,6.20
2023-02-06T15:00:47.669Z,6.70
2023-02-06T15:03:17.255Z,6.53
2023-02-06T15:05:46.277Z,6.17
2023-02-06T15:08:18.367Z,6.72
2023-02-06T15:10:47.066Z,6.15
2023-02-06T15:13:24.015Z,6.20
2023-02-06T15:15:55.839Z,7.55
2023-02-06T15:18:24.114Z,6.30
2023-02-06T15:20:54.360Z,6.53
2023-02-06T15:23:31.192Z,7.35
2023-02-06T15:26:04.000Z,5.87
2023-02-06T15:28:35.532Z,6.60
2023-02-06T15:31:04.279Z,6.97
2023-02-06T15:33:33.384Z,6.40
2023-02-06T15:36:04.304Z,7.30
2023-02-06T15:38:33.433Z,6.37
2023-02-06T15:41:04.141Z,6.77
2023-02-06T15:43:34.382Z,6.28
2023-02-06T15:46:03.506Z,5.80
2023-02-06T15:48:34.761Z,6.83
2023-02-06T15:51:04.810Z,6.53
2023-02-06T15:53:36.089Z,5.93
2023-02-06T15:56:05.350Z,6.53
2023-02-06T15:58:35.127Z,7.07
2023-02-06T16:01:05.698Z,6.40
2023-02-06T16:03:33.502Z,7.25
2023-02-06T16:06:01.506Z,8.40
2023-02-06T16:08:32.164Z,8.20
2023-02-06T16:11:02.169Z,7.30
2023-02-06T16:13:32.313Z,6.57
2023-02-06T16:16:20.753Z,6.43
2023-02-06T16:18:51.962Z,6.53
2023-02-06T16:21:28.417Z,7.03
2023-02-06T16:24:16.376Z,6.63
2023-02-06T16:26:46.891Z,7.00
2023-02-06T16:29:24.989Z,6.37
2023-02-06T16:32:02.255Z,6.60
2023-02-06T16:34:37.264Z,6.43
2023-02-06T16:37:11.935Z,7.10
2023-02-06T16:39:40.508Z,6.23
2023-02-06T16:42:13.103Z,7.10
2023-02-06T16:44:45.083Z,7.43
2023-02-06T16:47:16.882Z,7.30
2023-02-06T16:49:44.570Z,6.47
2023-02-06T16:52:18.440Z,6.87
2023-02-06T16:54:46.555Z,6.43
2023-02-06T16:57:21.724Z,7.27
2023-02-06T16:59:49.584Z,6.80
2023-02-06T17:02:18.882Z,7.70
2023-02-06T17:04:46.884Z,7.30
2023-02-06T17:07:16.849Z,8.30
2023-02-06T17:09:45.562Z,8.00
2023-02-06T17:12:15.153Z,8.63
2023-02-06T17:14:43.489Z,9.00
2023-02-06T17:17:13.090Z,9.43
2023-02-06T17:19:42.255Z,11.70
2023-02-06T17:22:11.106Z,12.00
2023-02-06T17:24:39.703Z,10.77
2023-02-06T17:27:09.584Z,13.33
2023-02-06T17:29:37.258Z,11.67
2023-02-06T17:32:06.278Z,11.33
2023-02-06T17:34:33.950Z,11.83
2023-02-06T17:37:03.061Z,11.40
2023-02-06T17:39:30.768Z,14.00
2023-02-06T17:41:58.498Z,14.60
2023-02-06T17:44:26.347Z,11.67
2023-02-06T17:46:54.069Z,13.97
2023-02-06T17:49:21.719Z,14.13
2023-02-06T17:51:49.476Z,13.67
2023-02-06T17:54:18.516Z,14.27
2023-02-06T17:56:46.273Z,13.80
2023-02-06T17:59:13.974Z,14.00
2023-02-06T18:01:42.538Z,16.17
2023-02-06T18:04:12.568Z,16.37
2023-02-06T18:06:40.666Z,17.57
2023-02-06T18:09:08.394Z,17.90
2023-02-06T18:11:37.499Z,18.00
2023-02-06T18:14:05.411Z,18.80
2023-02-06T18:16:33.768Z,18.83
2023-02-06T18:19:01.691Z,19.80
2023-02-06T18:21:30.958Z,23.93
2023-02-06T18:23:58.879Z,22.77
2023-02-06T18:26:27.204Z,24.47
2023-02-06T18:28:56.315Z,22.33
2023-02-06T18:31:26.500Z,21.30
2023-02-06T18:33:54.972Z,22.63
2023-02-06T18:36:23.084Z,21.73
2023-02-06T18:38:50.886Z,22.57
2023-02-06T18:41:36.871Z,21.73
2023-02-06T18:44:08.269Z,26.50
2023-02-06T18:46:37.844Z,23.03
2023-02-06T18:49:06.337Z,23.63
2023-02-06T18:51:34.286Z,23.13
2023-02-06T18:54:02.182Z,24.70
2023-02-06T18:56:30.615Z,25.17
2023-02-06T18:58:58.386Z,27.10
2023-02-06T19:01:27.582Z,27.00
2023-02-06T19:03:55.435Z,25.17
2023-02-06T19:06:25.549Z,32.07
2023-02-06T19:08:53.244Z,37.00
2023-02-06T19:11:20.937Z,38.03
2023-02-06T19:13:48.995Z,36.03
2023-02-06T19:16:18.236Z,34.50
2023-02-06T19:18:49.006Z,37.20
2023-02-06T19:21:19.877Z,36.57
2023-02-06T19:23:51.627Z,42.73
2023-02-06T19:26:19.464Z,40.63
2023-02-06T19:28:47.283Z,38.60
2023-02-06T19:31:20.552Z,34.53
2023-02-06T19:33:49.669Z,32.70
2023-02-06T19:36:18.658Z,29.20
2023-02-06T19:38:46.610Z,27.50
2023-02-06T19:41:18.445Z,30.37
2023-02-06T19:43:46.149Z,33.40
2023-02-06T19:46:15.993Z,36.90
2023-02-06T19:48:45.616Z,40.00
2023-02-06T19:51:16.820Z,35.47
2023-02-06T19:53:46.088Z,35.67
2023-02-06T19:56:14.336Z,35.80
2023-02-06T19:58:42.203Z,34.57
2023-02-06T20:01:11.448Z,37.80
2023-02-06T20:03:39.353Z,39.90
2023-02-06T20:06:09.560Z,37.83
2023-02-06T20:08:39.962Z,36.93
2023-02-06T20:11:08.677Z,36.53
2023-02-06T20:13:36.674Z,36.63
2023-02-06T20:16:06.917Z,35.63
2023-02-06T20:18:35.874Z,38.90
2023-02-06T20:21:04.113Z,35.50
2023-02-06T20:23:34.882Z,31.07
2023-02-06T20:26:04.007Z,29.63
2023-02-06T20:28:31.661Z,30.33
2023-02-06T20:30:59.470Z,29.63
2023-02-06T20:33:27.570Z,28.10
2023-02-06T20:35:55.351Z,25.40
2023-02-06T20:38:23.177Z,24.17
2023-02-06T20:40:51.554Z,23.10
2023-02-06T20:43:20.696Z,22.33
2023-02-06T20:45:48.541Z,23.83
2023-02-06T20:48:16.598Z,21.70
2023-02-06T20:50:44.423Z,19.93
2023-02-06T20:53:12.102Z,19.90
2023-02-06T20:55:41.573Z,17.63
2023-02-06T20:58:09.359Z,18.73
2023-02-06T21:00:38.673Z,17.70
2023-02-06T21:03:06.522Z,16.50
2023-02-06T21:05:34.505Z,17.27
2023-02-06T21:08:04.385Z,17.30
2023-02-06T21:10:32.077Z,17.47
2023-02-06T21:13:00.085Z,18.07
2023-02-06T21:15:27.790Z,17.50
2023-02-06T21:17:57.177Z,18.00
2023-02-06T21:20:25.192Z,17.03
2023-02-06T21:22:54.527Z,16.93
2023-02-06T21:25:22.539Z,15.80
2023-02-06T21:27:50.225Z,16.27
2023-02-06T21:30:18.749Z,16.60
2023-02-06T21:32:46.468Z,17.10
2023-02-06T21:35:15.587Z,17.80
2023-02-06T21:37:43.331Z,19.47
2023-02-06T21:40:12.071Z,18.93
2023-02-06T21:42:39.753Z,18.87
2023-02-06T21:45:08.756Z,18.60
2023-02-06T21:47:36.932Z,19.77
2023-02-06T21:50:05.095Z,22.03
2023-02-06T21:52:35.545Z,21.07
2023-02-06T21:55:05.608Z,20.63
2023-02-06T21:57:35.146Z,20.83
2023-02-06T22:00:02.845Z,21.47
2023-02-06T22:02:40.463Z,21.40
2023-02-06T22:05:08.581Z,21.57
2023-02-06T22:07:38.314Z,24.43
2023-02-06T22:10:06.893Z,21.57
2023-02-06T22:12:35.099Z,22.63
2023-02-06T22:15:02.827Z,20.17
2023-02-06T22:17:31.866Z,19.40
2023-02-06T22:19:59.551Z,19.20
2023-02-06T22:22:27.388Z,20.07
2023-02-06T22:24:56.598Z,19.50
2023-02-06T22:27:25.540Z,17.27
2023-02-06T22:29:53.208Z,16.83
2023-02-06T22:32:20.913Z,16.23
2023-02-06T22:34:50.814Z,15.97
2023-02-06T22:37:18.559Z,16.93
2023-02-06T22:39:46.413Z,16.23
2023-02-06T22:42:15.607Z,16.93
2023-02-06T22:44:43.358Z,17.80
2023-02-06T22:47:11.177Z,17.67
2023-02-06T22:49:38.978Z,18.53
2023-02-06T22:52:26.742Z,20.43
2023-02-06T22:54:54.487Z,20.77
2023-02-06T22:57:23.672Z,22.00
2023-02-06T22:59:51.658Z,20.53
2023-02-06T23:02:19.388Z,21.43
2023-02-06T23:04:47.195Z,21.07
2023-02-06T23:07:15.092Z,22.40
2023-02-06T23:09:42.820Z,21.67
2023-02-06T23:12:11.665Z,20.80
2023-02-06T23:14:40.727Z,21.37
2023-02-06T23:17:08.438Z,21.67
2023-02-06T23:19:36.139Z,19.07
2023-02-06T23:22:04.183Z,22.03
2023-02-06T23:24:31.804Z,21.07
2023-02-06T23:26:59.604Z,20.90
2023-02-06T23:29:27.313Z,20.70
2023-02-06T23:31:56.651Z,21.70
2023-02-06T23:34:24.634Z,21.90
2023-02-06T23:36:52.857Z,22.10
2023-02-06T23:39:20.625Z,21.53
2023-02-06T23:41:48.247Z,21.40
2023-02-06T23:44:16.088Z,21.10
2023-02-06T23:46:43.969Z,21.30
2023-02-06T23:49:13.086Z,21.63
2023-02-06T23:51:40.802Z,21.43
2023-02-06T23:54:09.245Z,22.30
2023-02-06T23:56:37.519Z,22.80
2023-02-06T23:59:06.552Z,21.57
